sensor_id;sensor_type;location;lat;lon;timestamp;pressure;altitude;pressure_sealevel;temperature;humidity
74403;BME280;62837;51.082;13.744;2023-08-20T00:00:34;100594.05;;;25.59;58.78
74403;BME280;62837;51.082;13.744;2023-08-20T00:03:10;100589.14;;;25.57;59.14
74403;BME280;62837;51.082;13.744;2023-08-20T00:05:42;100587.45;;;25.53;59.29
74403;BME280;62837;51.082;13.744;2023-08-20T00:08:13;100584.56;;;25.48;59.43
74403;BME280;62837;51.082;13.744;2023-08-20T00:10:44;100581.53;;;25.44;59.73
74403;BME280;62837;51.082;13.744;2023-08-20T00:13:15;100582.00;;;25.41;59.64
74403;BME280;62837;51.082;13.744;2023-08-20T00:15:46;100579.10;;;25.40;59.84
74403;BME280;62837;51.082;13.744;2023-08-20T00:18:18;100579.27;;;25.41;59.76
74403;BME280;62837;51.082;13.744;2023-08-20T00:20:50;100580.86;;;25.41;59.57
74403;BME280;62837;51.082;13.744;2023-08-20T00:23:21;100580.95;;;25.41;59.80
74403;BME280;62837;51.082;13.744;2023-08-20T00:25:54;100578.37;;;25.40;60.01
74403;BME280;62837;51.082;13.744;2023-08-20T00:28:24;100578.35;;;25.40;59.79
74403;BME280;62837;51.082;13.744;2023-08-20T00:30:55;100583.86;;;25.38;59.87
74403;BME280;62837;51.082;13.744;2023-08-20T00:33:26;100583.13;;;25.38;59.83
74403;BME280;62837;51.082;13.744;2023-08-20T00:35:57;100589.23;;;25.40;60.29
74403;BME280;62837;51.082;13.744;2023-08-20T00:38:28;100588.69;;;25.43;60.34
74403;BME280;62837;51.082;13.744;2023-08-20T00:40:59;100588.61;;;25.44;60.20
74403;BME280;62837;51.082;13.744;2023-08-20T00:43:30;100591.21;;;25.47;60.46
74403;BME280;62837;51.082;13.744;2023-08-20T00:46:01;100592.19;;;25.49;60.23
74403;BME280;62837;51.082;13.744;2023-08-20T00:48:33;100590.59;;;25.50;60.57
74403;BME280;62837;51.082;13.744;2023-08-20T00:51:05;100590.26;;;25.47;60.46
74403;BME280;62837;51.082;13.744;2023-08-20T00:53:36;100587.35;;;25.42;60.50
74403;BME280;62837;51.082;13.744;2023-08-20T00:56:06;100586.23;;;25.40;60.72
74403;BME280;62837;51.082;13.744;2023-08-20T00:58:37;100588.05;;;25.41;60.78
74403;BME280;62837;51.082;13.744;2023-08-20T01:01:08;100587.99;;;25.44;60.88
74403;BME280;62837;51.082;13.744;2023-08-20T01:03:39;100588.30;;;25.47;60.80
74403;BME280;62837;51.082;13.744;2023-08-20T01:06:15;100588.71;;;25.49;60.78
74403;BME280;62837;51.082;13.744;2023-08-20T01:08:56;100592.77;;;25.48;60.84
74403;BME280;62837;51.082;13.744;2023-08-20T01:11:33;100593.23;;;25.45;60.67
74403;BME280;62837;51.082;13.744;2023-08-20T01:14:15;100595.96;;;25.45;60.98
74403;BME280;62837;51.082;13.744;2023-08-20T01:16:47;100597.94;;;25.46;61.25
74403;BME280;62837;51.082;13.744;2023-08-20T01:19:20;100604.70;;;25.51;60.92
74403;BME280;62837;51.082;13.744;2023-08-20T01:22:00;100609.11;;;25.51;60.97
74403;BME280;62837;51.082;13.744;2023-08-20T01:24:50;100613.69;;;25.39;61.33
74403;BME280;62837;51.082;13.744;2023-08-20T01:27:38;100619.52;;;25.26;61.56
74403;BME280;62837;51.082;13.744;2023-08-20T01:30:14;100621.44;;;25.26;61.80
74403;BME280;62837;51.082;13.744;2023-08-20T01:32:45;100622.50;;;25.32;61.98
74403;BME280;62837;51.082;13.744;2023-08-20T01:35:17;100623.88;;;25.38;61.65
74403;BME280;62837;51.082;13.744;2023-08-20T01:37:48;100626.70;;;25.42;61.62
74403;BME280;62837;51.082;13.744;2023-08-20T01:40:19;100633.76;;;25.47;61.71
74403;BME280;62837;51.082;13.744;2023-08-20T01:42:50;100637.11;;;25.51;61.51
74403;BME280;62837;51.082;13.744;2023-08-20T01:45:20;100638.56;;;25.53;61.52
74403;BME280;62837;51.082;13.744;2023-08-20T01:47:52;100640.60;;;25.49;61.15
74403;BME280;62837;51.082;13.744;2023-08-20T01:50:23;100634.02;;;25.42;61.57
74403;BME280;62837;51.082;13.744;2023-08-20T01:52:53;100638.29;;;25.38;61.56
74403;BME280;62837;51.082;13.744;2023-08-20T01:55:24;100640.90;;;25.31;61.39
74403;BME280;62837;51.082;13.744;2023-08-20T01:57:58;100646.41;;;25.27;61.64
74403;BME280;62837;51.082;13.744;2023-08-20T02:00:29;100641.66;;;25.27;61.75
74403;BME280;62837;51.082;13.744;2023-08-20T02:03:00;100644.83;;;25.31;61.83
74403;BME280;62837;51.082;13.744;2023-08-20T02:05:31;100641.80;;;25.32;61.62
74403;BME280;62837;51.082;13.744;2023-08-20T02:08:03;100647.16;;;25.28;61.94
74403;BME280;62837;51.082;13.744;2023-08-20T02:10:34;100652.48;;;25.26;61.57
74403;BME280;62837;51.082;13.744;2023-08-20T02:13:07;100654.45;;;25.23;62.15
74403;BME280;62837;51.082;13.744;2023-08-20T02:15:38;100654.84;;;25.24;61.85
74403;BME280;62837;51.082;13.744;2023-08-20T02:18:08;100655.86;;;25.24;62.06
74403;BME280;62837;51.082;13.744;2023-08-20T02:20:41;100657.74;;;25.25;61.92
74403;BME280;62837;51.082;13.744;2023-08-20T02:23:14;100661.52;;;25.23;61.99
74403;BME280;62837;51.082;13.744;2023-08-20T02:25:46;100666.89;;;25.21;61.77
74403;BME280;62837;51.082;13.744;2023-08-20T02:28:17;100665.55;;;25.15;61.95
74403;BME280;62837;51.082;13.744;2023-08-20T02:30:48;100669.63;;;25.15;61.97
74403;BME280;62837;51.082;13.744;2023-08-20T02:33:18;100669.34;;;25.13;62.16
74403;BME280;62837;51.082;13.744;2023-08-20T02:35:49;100665.50;;;25.14;62.21
74403;BME280;62837;51.082;13.744;2023-08-20T02:38:20;100664.63;;;25.15;62.54
74403;BME280;62837;51.082;13.744;2023-08-20T02:40:51;100665.09;;;25.12;62.18
74403;BME280;62837;51.082;13.744;2023-08-20T02:43:22;100664.67;;;25.09;62.53
74403;BME280;62837;51.082;13.744;2023-08-20T02:45:53;100659.46;;;25.09;62.47
74403;BME280;62837;51.082;13.744;2023-08-20T02:48:24;100659.40;;;25.05;62.37
74403;BME280;62837;51.082;13.744;2023-08-20T02:50:56;100660.52;;;25.01;62.64
74403;BME280;62837;51.082;13.744;2023-08-20T02:53:27;100661.11;;;24.96;62.68
74403;BME280;62837;51.082;13.744;2023-08-20T02:55:58;100665.71;;;24.90;62.87
74403;BME280;62837;51.082;13.744;2023-08-20T02:58:29;100664.14;;;24.83;63.07
74403;BME280;62837;51.082;13.744;2023-08-20T03:01:00;100656.94;;;24.79;63.13
74403;BME280;62837;51.082;13.744;2023-08-20T03:03:31;100657.61;;;24.80;63.32
74403;BME280;62837;51.082;13.744;2023-08-20T03:06:02;100654.48;;;24.87;63.36
74403;BME280;62837;51.082;13.744;2023-08-20T03:08:32;100662.62;;;24.94;63.29
74403;BME280;62837;51.082;13.744;2023-08-20T03:11:03;100664.11;;;24.95;62.85
74403;BME280;62837;51.082;13.744;2023-08-20T03:13:34;100665.08;;;24.96;63.07
74403;BME280;62837;51.082;13.744;2023-08-20T03:16:05;100668.68;;;24.99;62.97
74403;BME280;62837;51.082;13.744;2023-08-20T03:18:36;100669.84;;;25.05;62.96
74403;BME280;62837;51.082;13.744;2023-08-20T03:21:07;100673.25;;;25.05;63.15
74403;BME280;62837;51.082;13.744;2023-08-20T03:23:37;100676.96;;;25.06;63.00
74403;BME280;62837;51.082;13.744;2023-08-20T03:26:08;100676.32;;;25.09;62.96
74403;BME280;62837;51.082;13.744;2023-08-20T03:28:39;100671.62;;;25.05;62.94
74403;BME280;62837;51.082;13.744;2023-08-20T03:31:10;100673.14;;;24.96;63.14
74403;BME280;62837;51.082;13.744;2023-08-20T03:33:42;100675.42;;;24.95;63.43
74403;BME280;62837;51.082;13.744;2023-08-20T03:36:13;100676.69;;;25.00;63.20
74403;BME280;62837;51.082;13.744;2023-08-20T03:38:44;100679.89;;;25.05;63.16
74403;BME280;62837;51.082;13.744;2023-08-20T03:41:15;100681.86;;;25.06;63.15
74403;BME280;62837;51.082;13.744;2023-08-20T03:43:47;100678.33;;;25.06;63.30
74403;BME280;62837;51.082;13.744;2023-08-20T03:46:18;100681.95;;;25.09;63.27
74403;BME280;62837;51.082;13.744;2023-08-20T03:48:49;100684.02;;;25.11;63.19
74403;BME280;62837;51.082;13.744;2023-08-20T03:51:20;100687.30;;;25.14;63.13
74403;BME280;62837;51.082;13.744;2023-08-20T03:53:51;100694.11;;;25.18;63.36
74403;BME280;62837;51.082;13.744;2023-08-20T03:56:22;100700.42;;;25.22;63.12
74403;BME280;62837;51.082;13.744;2023-08-20T03:58:52;100708.35;;;25.26;63.21
74403;BME280;62837;51.082;13.744;2023-08-20T04:01:23;100707.23;;;25.28;62.94
74403;BME280;62837;51.082;13.744;2023-08-20T04:03:54;100709.87;;;25.18;62.82
74403;BME280;62837;51.082;13.744;2023-08-20T04:06:25;100712.95;;;25.03;62.73
74403;BME280;62837;51.082;13.744;2023-08-20T04:08:56;100720.64;;;24.87;63.08
74403;BME280;62837;51.082;13.744;2023-08-20T04:11:26;100717.77;;;24.75;63.22
74403;BME280;62837;51.082;13.744;2023-08-20T04:13:57;100716.45;;;24.67;63.91
74403;BME280;62837;51.082;13.744;2023-08-20T04:16:31;100714.86;;;24.70;64.07
74403;BME280;62837;51.082;13.744;2023-08-20T04:19:02;100713.79;;;24.69;63.93
74403;BME280;62837;51.082;13.744;2023-08-20T04:21:33;100722.04;;;24.67;64.38
74403;BME280;62837;51.082;13.744;2023-08-20T04:24:05;100733.39;;;24.71;64.49
74403;BME280;62837;51.082;13.744;2023-08-20T04:26:36;100736.41;;;24.81;64.43
74403;BME280;62837;51.082;13.744;2023-08-20T04:29:06;100737.21;;;24.83;64.25
74403;BME280;62837;51.082;13.744;2023-08-20T04:31:37;100740.22;;;24.73;64.25
74403;BME280;62837;51.082;13.744;2023-08-20T04:34:11;100740.28;;;24.62;64.69
74403;BME280;62837;51.082;13.744;2023-08-20T04:36:53;100744.39;;;24.59;64.70
74403;BME280;62837;51.082;13.744;2023-08-20T04:39:24;100748.86;;;24.62;64.91
74403;BME280;62837;51.082;13.744;2023-08-20T04:41:55;100746.48;;;24.67;64.80
74403;BME280;62837;51.082;13.744;2023-08-20T04:44:28;100748.64;;;24.68;64.82
74403;BME280;62837;51.082;13.744;2023-08-20T04:46:59;100747.85;;;24.71;64.79
74403;BME280;62837;51.082;13.744;2023-08-20T04:49:32;100754.48;;;24.79;64.97
74403;BME280;62837;51.082;13.744;2023-08-20T04:52:04;100759.07;;;24.89;64.58
74403;BME280;62837;51.082;13.744;2023-08-20T04:54:34;100756.15;;;24.93;64.39
74403;BME280;62837;51.082;13.744;2023-08-20T04:57:05;100759.60;;;24.88;64.27
74403;BME280;62837;51.082;13.744;2023-08-20T04:59:36;100763.34;;;24.92;64.19
74403;BME280;62837;51.082;13.744;2023-08-20T05:02:18;100765.38;;;24.99;64.16
74403;BME280;62837;51.082;13.744;2023-08-20T05:04:54;100762.11;;;24.98;64.28
74403;BME280;62837;51.082;13.744;2023-08-20T05:07:25;100764.48;;;24.88;64.41
74403;BME280;62837;51.082;13.744;2023-08-20T05:09:56;100766.14;;;24.89;64.45
74403;BME280;62837;51.082;13.744;2023-08-20T05:12:28;100769.16;;;24.99;64.33
74403;BME280;62837;51.082;13.744;2023-08-20T05:14:58;100772.84;;;25.10;64.55
74403;BME280;62837;51.082;13.744;2023-08-20T05:17:32;100772.02;;;25.20;64.55
74403;BME280;62837;51.082;13.744;2023-08-20T05:20:05;100775.10;;;25.30;64.27
74403;BME280;62837;51.082;13.744;2023-08-20T05:22:36;100771.70;;;25.44;64.05
74403;BME280;62837;51.082;13.744;2023-08-20T05:25:08;100777.02;;;25.64;63.73
74403;BME280;62837;51.082;13.744;2023-08-20T05:27:39;100779.61;;;25.78;63.34
74403;BME280;62837;51.082;13.744;2023-08-20T05:30:11;100780.12;;;25.96;62.79
74403;BME280;62837;51.082;13.744;2023-08-20T05:32:42;100786.76;;;26.07;62.51
74403;BME280;62837;51.082;13.744;2023-08-20T05:35:13;100790.58;;;26.16;61.80
74403;BME280;62837;51.082;13.744;2023-08-20T05:37:44;100792.64;;;26.20;61.67
74403;BME280;62837;51.082;13.744;2023-08-20T05:40:16;100795.42;;;26.21;61.69
74403;BME280;62837;51.082;13.744;2023-08-20T05:42:47;100798.64;;;26.23;61.58
74403;BME280;62837;51.082;13.744;2023-08-20T05:45:20;100806.91;;;26.25;61.73
74403;BME280;62837;51.082;13.744;2023-08-20T05:47:51;100805.98;;;26.26;61.25
74403;BME280;62837;51.082;13.744;2023-08-20T05:50:23;100802.83;;;26.31;61.28
74403;BME280;62837;51.082;13.744;2023-08-20T05:52:54;100798.70;;;26.43;61.14
74403;BME280;62837;51.082;13.744;2023-08-20T05:55:25;100803.17;;;26.51;61.25
74403;BME280;62837;51.082;13.744;2023-08-20T05:57:56;100809.45;;;26.57;60.93
74403;BME280;62837;51.082;13.744;2023-08-20T06:00:27;100812.13;;;26.66;60.84
74403;BME280;62837;51.082;13.744;2023-08-20T06:02:58;100813.88;;;26.73;60.47
74403;BME280;62837;51.082;13.744;2023-08-20T06:05:29;100812.35;;;26.78;60.44
74403;BME280;62837;51.082;13.744;2023-08-20T06:08:00;100815.02;;;26.81;60.28
74403;BME280;62837;51.082;13.744;2023-08-20T06:10:31;100820.77;;;26.79;60.18
74403;BME280;62837;51.082;13.744;2023-08-20T06:13:02;100816.77;;;26.78;60.36
74403;BME280;62837;51.082;13.744;2023-08-20T06:15:33;100818.05;;;26.77;60.49
74403;BME280;62837;51.082;13.744;2023-08-20T06:18:04;100817.94;;;26.84;60.07
74403;BME280;62837;51.082;13.744;2023-08-20T06:20:35;100823.98;;;26.94;60.38
74403;BME280;62837;51.082;13.744;2023-08-20T06:23:06;100822.08;;;27.04;60.18
74403;BME280;62837;51.082;13.744;2023-08-20T06:25:37;100822.08;;;27.21;59.81
74403;BME280;62837;51.082;13.744;2023-08-20T06:28:09;100824.06;;;27.30;59.34
74403;BME280;62837;51.082;13.744;2023-08-20T06:30:40;100824.60;;;27.36;59.39
74403;BME280;62837;51.082;13.744;2023-08-20T06:33:11;100822.36;;;27.39;58.96
74403;BME280;62837;51.082;13.744;2023-08-20T06:35:42;100819.84;;;27.38;58.78
74403;BME280;62837;51.082;13.744;2023-08-20T06:38:12;100819.84;;;27.36;58.93
74403;BME280;62837;51.082;13.744;2023-08-20T06:40:43;100819.30;;;27.33;58.76
74403;BME280;62837;51.082;13.744;2023-08-20T06:43:14;100820.84;;;27.28;58.95
74403;BME280;62837;51.082;13.744;2023-08-20T06:45:45;100823.61;;;27.20;59.30
74403;BME280;62837;51.082;13.744;2023-08-20T06:48:16;100824.32;;;27.11;59.82
74403;BME280;62837;51.082;13.744;2023-08-20T06:50:49;100826.48;;;27.05;59.62
74403;BME280;62837;51.082;13.744;2023-08-20T06:53:20;100830.61;;;27.03;59.68
74403;BME280;62837;51.082;13.744;2023-08-20T06:55:50;100833.83;;;27.01;59.86
74403;BME280;62837;51.082;13.744;2023-08-20T06:58:21;100834.89;;;26.97;59.56
74403;BME280;62837;51.082;13.744;2023-08-20T07:03:43;100839.42;;;27.01;60.08
74403;BME280;62837;51.082;13.744;2023-08-20T07:06:13;100840.94;;;27.14;60.72
74403;BME280;62837;51.082;13.744;2023-08-20T07:08:45;100843.95;;;27.44;60.90
74403;BME280;62837;51.082;13.744;2023-08-20T07:11:16;100844.16;;;27.69;60.31
74403;BME280;62837;51.082;13.744;2023-08-20T07:13:47;100854.73;;;27.87;60.11
74403;BME280;62837;51.082;13.744;2023-08-20T07:16:18;100856.20;;;27.91;59.64
74403;BME280;62837;51.082;13.744;2023-08-20T07:18:48;100857.89;;;27.90;59.16
74403;BME280;62837;51.082;13.744;2023-08-20T07:21:19;100858.61;;;27.90;59.19
74403;BME280;62837;51.082;13.744;2023-08-20T07:23:49;100863.77;;;27.89;59.28
74403;BME280;62837;51.082;13.744;2023-08-20T07:26:20;100867.45;;;27.85;59.49
74403;BME280;62837;51.082;13.744;2023-08-20T07:28:52;100864.55;;;27.73;59.38
74403;BME280;62837;51.082;13.744;2023-08-20T07:31:30;100870.02;;;27.60;59.66
74403;BME280;62837;51.082;13.744;2023-08-20T07:34:04;100867.74;;;27.57;59.91
74403;BME280;62837;51.082;13.744;2023-08-20T07:36:35;100866.53;;;27.71;59.88
74403;BME280;62837;51.082;13.744;2023-08-20T07:39:06;100867.31;;;27.79;60.08
74403;BME280;62837;51.082;13.744;2023-08-20T07:41:38;100860.65;;;27.84;59.79
74403;BME280;62837;51.082;13.744;2023-08-20T07:44:08;100871.46;;;27.99;59.69
74403;BME280;62837;51.082;13.744;2023-08-20T07:46:42;100868.73;;;28.27;59.39
74403;BME280;62837;51.082;13.744;2023-08-20T07:49:13;100858.98;;;28.57;58.83
74403;BME280;62837;51.082;13.744;2023-08-20T07:51:44;100860.42;;;28.93;58.24
74403;BME280;62837;51.082;13.744;2023-08-20T07:54:15;100862.06;;;29.22;57.84
74403;BME280;62837;51.082;13.744;2023-08-20T07:56:45;100864.58;;;29.33;57.10
74403;BME280;62837;51.082;13.744;2023-08-20T07:59:16;100861.40;;;29.32;56.04
74403;BME280;62837;51.082;13.744;2023-08-20T08:01:47;100860.44;;;29.35;55.51
74403;BME280;62837;51.082;13.744;2023-08-20T08:04:18;100861.27;;;29.45;55.46
74403;BME280;62837;51.082;13.744;2023-08-20T08:06:49;100858.34;;;29.40;55.37
74403;BME280;62837;51.082;13.744;2023-08-20T08:09:25;100864.55;;;29.43;55.47
74403;BME280;62837;51.082;13.744;2023-08-20T08:11:57;100864.84;;;29.42;55.03
74403;BME280;62837;51.082;13.744;2023-08-20T08:14:28;100867.39;;;29.28;55.17
74403;BME280;62837;51.082;13.744;2023-08-20T08:16:59;100872.70;;;29.12;55.77
74403;BME280;62837;51.082;13.744;2023-08-20T08:19:30;100878.80;;;29.02;56.12
74403;BME280;62837;51.082;13.744;2023-08-20T08:22:01;100876.40;;;29.04;56.31
74403;BME280;62837;51.082;13.744;2023-08-20T08:24:32;100878.99;;;29.26;56.37
74403;BME280;62837;51.082;13.744;2023-08-20T08:27:04;100882.88;;;29.45;55.91
74403;BME280;62837;51.082;13.744;2023-08-20T08:29:35;100889.07;;;29.60;55.48
74403;BME280;62837;51.082;13.744;2023-08-20T08:32:06;100887.95;;;29.64;55.16
74403;BME280;62837;51.082;13.744;2023-08-20T08:34:37;100894.55;;;29.67;55.22
74403;BME280;62837;51.082;13.744;2023-08-20T08:37:07;100895.48;;;29.90;55.14
74403;BME280;62837;51.082;13.744;2023-08-20T08:39:39;100893.42;;;30.09;54.61
74403;BME280;62837;51.082;13.744;2023-08-20T08:42:11;100891.02;;;30.31;53.74
74403;BME280;62837;51.082;13.744;2023-08-20T08:44:43;100883.20;;;30.68;53.11
74403;BME280;62837;51.082;13.744;2023-08-20T08:47:14;100886.17;;;30.77;52.32
74403;BME280;62837;51.082;13.744;2023-08-20T08:49:46;100891.55;;;30.67;52.96
74403;BME280;62837;51.082;13.744;2023-08-20T08:52:15;100889.11;;;30.61;52.83
74403;BME280;62837;51.082;13.744;2023-08-20T08:54:47;100898.77;;;30.43;52.74
74403;BME280;62837;51.082;13.744;2023-08-20T08:57:18;100896.02;;;30.15;52.95
74403;BME280;62837;51.082;13.744;2023-08-20T08:59:49;100893.29;;;29.89;53.52
74403;BME280;62837;51.082;13.744;2023-08-20T09:02:20;100898.10;;;29.74;53.68
74403;BME280;62837;51.082;13.744;2023-08-20T09:04:53;100900.94;;;29.75;54.17
74403;BME280;62837;51.082;13.744;2023-08-20T09:07:24;100899.61;;;29.77;54.53
74403;BME280;62837;51.082;13.744;2023-08-20T09:09:59;100912.53;;;29.59;54.68
74403;BME280;62837;51.082;13.744;2023-08-20T09:12:35;100912.50;;;29.33;55.15
74403;BME280;62837;51.082;13.744;2023-08-20T09:15:11;100915.13;;;29.42;55.81
74403;BME280;62837;51.082;13.744;2023-08-20T09:17:43;100916.90;;;29.54;55.38
74403;BME280;62837;51.082;13.744;2023-08-20T09:20:14;100916.62;;;29.77;56.00
74403;BME280;62837;51.082;13.744;2023-08-20T09:22:49;100920.34;;;30.01;55.84
74403;BME280;62837;51.082;13.744;2023-08-20T09:25:20;100924.86;;;30.13;54.96
74403;BME280;62837;51.082;13.744;2023-08-20T09:27:51;100924.45;;;30.14;54.24
74403;BME280;62837;51.082;13.744;2023-08-20T09:30:24;100921.62;;;30.09;53.82
74403;BME280;62837;51.082;13.744;2023-08-20T09:33:09;100927.52;;;30.17;54.31
74403;BME280;62837;51.082;13.744;2023-08-20T09:35:50;100931.51;;;30.28;53.93
74403;BME280;62837;51.082;13.744;2023-08-20T09:38:23;100934.20;;;30.28;53.16
74403;BME280;62837;51.082;13.744;2023-08-20T09:40:55;100934.73;;;30.26;53.50
74403;BME280;62837;51.082;13.744;2023-08-20T09:43:29;100929.88;;;30.37;53.55
74403;BME280;62837;51.082;13.744;2023-08-20T09:46:03;100925.91;;;30.56;53.45
74403;BME280;62837;51.082;13.744;2023-08-20T09:48:39;100926.58;;;30.72;53.27
74403;BME280;62837;51.082;13.744;2023-08-20T09:51:12;100928.92;;;30.81;53.30
74403;BME280;62837;51.082;13.744;2023-08-20T09:53:53;100931.26;;;30.97;53.23
74403;BME280;62837;51.082;13.744;2023-08-20T09:56:29;100932.78;;;31.06;52.76
74403;BME280;62837;51.082;13.744;2023-08-20T09:59:00;100931.67;;;30.98;52.40
74403;BME280;62837;51.082;13.744;2023-08-20T10:01:32;100925.51;;;30.98;52.42
74403;BME280;62837;51.082;13.744;2023-08-20T10:04:04;100922.45;;;30.89;52.21
74403;BME280;62837;51.082;13.744;2023-08-20T10:06:37;100923.29;;;30.80;52.56
74403;BME280;62837;51.082;13.744;2023-08-20T10:09:08;100927.62;;;30.82;52.83
74403;BME280;62837;51.082;13.744;2023-08-20T10:11:41;100922.66;;;30.76;52.26
74403;BME280;62837;51.082;13.744;2023-08-20T10:14:12;100920.87;;;30.70;52.37
74403;BME280;62837;51.082;13.744;2023-08-20T10:16:43;100918.80;;;30.63;52.62
74403;BME280;62837;51.082;13.744;2023-08-20T10:19:16;100913.97;;;30.70;52.63
74403;BME280;62837;51.082;13.744;2023-08-20T10:21:47;100910.21;;;30.67;53.15
74403;BME280;62837;51.082;13.744;2023-08-20T10:24:19;100901.85;;;30.62;52.70
74403;BME280;62837;51.082;13.744;2023-08-20T10:27:08;100898.83;;;30.61;52.56
74403;BME280;62837;51.082;13.744;2023-08-20T10:29:41;100903.21;;;30.72;52.94
74403;BME280;62837;51.082;13.744;2023-08-20T10:32:12;100901.14;;;30.85;52.78
74403;BME280;62837;51.082;13.744;2023-08-20T10:34:51;100896.02;;;30.91;51.99
74403;BME280;62837;51.082;13.744;2023-08-20T10:37:29;100891.83;;;30.92;50.63
74403;BME280;62837;51.082;13.744;2023-08-20T10:39:58;100888.27;;;30.76;50.14
74403;BME280;62837;51.082;13.744;2023-08-20T10:42:29;100884.48;;;30.73;50.63
74403;BME280;62837;51.082;13.744;2023-08-20T10:45:05;100883.20;;;30.73;51.14
74403;BME280;62837;51.082;13.744;2023-08-20T10:47:43;100885.50;;;30.75;51.83
74403;BME280;62837;51.082;13.744;2023-08-20T10:50:17;100890.43;;;30.80;50.74
74403;BME280;62837;51.082;13.744;2023-08-20T10:52:54;100886.02;;;30.73;50.39
74403;BME280;62837;51.082;13.744;2023-08-20T10:55:24;100878.94;;;30.71;50.65
74403;BME280;62837;51.082;13.744;2023-08-20T10:57:56;100875.73;;;30.69;51.16
74403;BME280;62837;51.082;13.744;2023-08-20T11:00:29;100873.80;;;30.63;50.47
74403;BME280;62837;51.082;13.744;2023-08-20T11:03:01;100870.67;;;30.60;49.91
74403;BME280;62837;51.082;13.744;2023-08-20T11:05:32;100874.52;;;30.62;50.13
74403;BME280;62837;51.082;13.744;2023-08-20T11:08:03;100873.85;;;30.51;49.62
74403;BME280;62837;51.082;13.744;2023-08-20T11:10:37;100877.27;;;30.42;49.11
74403;BME280;62837;51.082;13.744;2023-08-20T11:13:09;100875.63;;;30.50;49.56
74403;BME280;62837;51.082;13.744;2023-08-20T11:15:40;100873.80;;;30.69;50.00
74403;BME280;62837;51.082;13.744;2023-08-20T11:18:12;100876.80;;;30.85;50.15
74403;BME280;62837;51.082;13.744;2023-08-20T11:20:43;100874.42;;;30.95;50.43
74403;BME280;62837;51.082;13.744;2023-08-20T11:23:14;100868.51;;;31.06;49.59
74403;BME280;62837;51.082;13.744;2023-08-20T11:25:46;100864.23;;;31.14;48.53
74403;BME280;62837;51.082;13.744;2023-08-20T11:28:17;100864.45;;;31.19;48.58
74403;BME280;62837;51.082;13.744;2023-08-20T11:30:48;100865.65;;;31.17;47.93
74403;BME280;62837;51.082;13.744;2023-08-20T11:33:20;100861.57;;;31.24;48.38
74403;BME280;62837;51.082;13.744;2023-08-20T11:35:51;100862.30;;;31.24;47.63
74403;BME280;62837;51.082;13.744;2023-08-20T11:38:24;100862.05;;;31.22;47.44
74403;BME280;62837;51.082;13.744;2023-08-20T11:40:56;100862.69;;;31.22;47.16
74403;BME280;62837;51.082;13.744;2023-08-20T11:43:30;100854.38;;;31.26;47.30
74403;BME280;62837;51.082;13.744;2023-08-20T11:46:01;100849.58;;;31.33;46.83
74403;BME280;62837;51.082;13.744;2023-08-20T11:48:33;100853.01;;;31.40;46.66
74403;BME280;62837;51.082;13.744;2023-08-20T11:51:07;100851.04;;;31.46;46.01
74403;BME280;62837;51.082;13.744;2023-08-20T11:53:39;100850.84;;;31.50;45.68
74403;BME280;62837;51.082;13.744;2023-08-20T11:56:14;100852.61;;;31.49;45.11
74403;BME280;62837;51.082;13.744;2023-08-20T11:58:51;100849.52;;;31.43;45.31
74403;BME280;62837;51.082;13.744;2023-08-20T12:01:25;100841.70;;;31.39;44.42
74403;BME280;62837;51.082;13.744;2023-08-20T12:04:01;100843.61;;;31.35;43.68
74403;BME280;62837;51.082;13.744;2023-08-20T12:06:33;100841.24;;;31.27;44.19
74403;BME280;62837;51.082;13.744;2023-08-20T12:09:20;100837.45;;;31.30;44.26
74403;BME280;62837;51.082;13.744;2023-08-20T12:11:52;100839.23;;;31.30;44.18
74403;BME280;62837;51.082;13.744;2023-08-20T12:14:25;100834.44;;;31.29;44.06
74403;BME280;62837;51.082;13.744;2023-08-20T12:16:56;100837.11;;;31.36;44.41
74403;BME280;62837;51.082;13.744;2023-08-20T12:19:28;100832.80;;;31.41;44.49
74403;BME280;62837;51.082;13.744;2023-08-20T12:21:58;100830.27;;;31.47;44.56
74403;BME280;62837;51.082;13.744;2023-08-20T12:24:29;100828.92;;;31.51;44.34
74403;BME280;62837;51.082;13.744;2023-08-20T12:27:00;100824.99;;;31.50;45.18
74403;BME280;62837;51.082;13.744;2023-08-20T12:29:31;100823.86;;;31.50;45.07
74403;BME280;62837;51.082;13.744;2023-08-20T12:32:02;100826.69;;;31.48;45.94
74403;BME280;62837;51.082;13.744;2023-08-20T12:34:36;100823.69;;;31.48;46.78
74403;BME280;62837;51.082;13.744;2023-08-20T12:37:07;100821.42;;;31.48;47.04
74403;BME280;62837;51.082;13.744;2023-08-20T12:39:38;100817.99;;;31.47;46.28
74403;BME280;62837;51.082;13.744;2023-08-20T12:42:08;100821.73;;;31.47;46.96
74403;BME280;62837;51.082;13.744;2023-08-20T12:44:39;100822.27;;;31.45;47.11
74403;BME280;62837;51.082;13.744;2023-08-20T12:47:10;100823.86;;;31.42;47.41
74403;BME280;62837;51.082;13.744;2023-08-20T12:49:41;100821.89;;;31.40;46.55
74403;BME280;62837;51.082;13.744;2023-08-20T12:52:12;100818.42;;;31.41;46.46
74403;BME280;62837;51.082;13.744;2023-08-20T12:54:43;100813.41;;;31.37;46.09
74403;BME280;62837;51.082;13.744;2023-08-20T12:57:13;100815.31;;;31.32;46.17
74403;BME280;62837;51.082;13.744;2023-08-20T12:59:44;100810.74;;;31.31;46.11
74403;BME280;62837;51.082;13.744;2023-08-20T13:02:15;100807.23;;;31.28;46.15
74403;BME280;62837;51.082;13.744;2023-08-20T13:04:47;100802.70;;;31.28;46.04
74403;BME280;62837;51.082;13.744;2023-08-20T13:07:20;100794.33;;;31.28;46.04